SKRG

Details ICAO SKRG (MDE)
Name JOSE MARIA CORDOVA
Region Colombia
Timezone America/Bogota (UTC-5.0)
Plans Departing 446
Arriving 404
Stats Elevation 6,955 ft / 2,120 m (AMSL)
Location 6.164532° -75.423119°
Runways 1
Magnetic Variation 6.705° W
Sunrise 2018-06-23 10:50:45 UTC / 2018-06-23 05:50:45 Local
Sunset 2018-06-23 23:19:32 UTC / 2018-06-23 18:19:32 Local
Advertisement - Login to hide

Runways

ID Width Length Bearing (true) Bearing (mag) Surface Threshold Offset Overrun Length
18 148 ft / 45 m 11,547 ft / 3,520 m 179.62° 186.32° Asphalt 0 ft / 0 m 98 ft / 30 m
36 148 ft / 45 m 11,547 ft / 3,520 m 359.62° 6.32° Asphalt 0 ft / 0 m 98 ft / 30 m

Approach Navaids

Runway Type Ident Frequency Range Bearing (true) Bearing (mag) Slope Elevation
36 Localiser IMDE 110.90 MHz 18 nm / 33 km 359.62° 6.32° - 6,955 ft / 2,120 m (AMSL)
36 Glidescope IMDE 110.90 MHz 10 nm / 19 km 359.62° 6.32° 3.00° 6,955 ft / 2,120 m (AMSL)

Map

Weather


0- 5 10 15 20 25 30 35+ Temperature / ° C

Clouds and Precipitation
Forecast for 2018-06-23 12:00 UTC. Updated 4 hours ago

Ground ~20,000 ft ~40,000 ft Winds

METAR

SKRG 231400Z VRB02KT 9999 FEW020 BKN200 18/13 A3030

TAF

Not found

Frequencies

Ground 121.90 MHz GND
Tower 118.60 MHz TWR
Tower 127.20 MHz MEDELLIN FIS
Approach 121.10 MHz MEDELLIN APP
Warning: Do not use this data for real-world aviation or navigation. No guarantee of current accuracy is given.